AirNav   Bose ProFlight Series 2 Headset
 
 922 users online  

52IN Strebig Airport
Angola, Indiana, USA

GOING TO ANGOLA?


FAA INFORMATION EFFECTIVE 02 JANUARY 2020

Location

FAA Identifier: 52IN
Lat/Long: 41-41-43.8200N 085-02-47.5500W
41-41.730333N 085-02.792500W
41.6955056,-85.0465417
(estimated)
Elevation: 975 ft. / 297 m (estimated)
From city: 3 miles NW of ANGOLA, IN
Time zone: UTC -5 (UTC -4 during Daylight Saving Time)
Zip code: 46703

Airport Operations

Airport use: Private use. Permission required prior to landing
Activation date: 06/2011
Control tower: no
ARTCC: CHICAGO CENTER
FSS: TERRE HAUTE FLIGHT SERVICE STATION
Attendance: UNATNDD
Wind indicator: yes
Segmented circle: no

Airport Communications

WX AWOS-3 at ANQ (4 nm SW): 118.175 (260-668-5630)
WX AWOS-3 at OEB (14 nm N): 118.125 (517-279-1810)
WX AWOS-3P at C62 (16 nm SW): 119.925 (260-347-2967)
WX AWOS-3 at IRS (19 nm W): 121.325 (269-659-8715)

Nearby radio navigation aids

VOR radial/distance  VOR name  Freq  Var
LFDr215/25.4LITCHFIELD VOR/DME111.2005W
OLKr040/(33.7)WEBSTER LAKE VOR110.4003W
AZOr146/39.6KALAMAZOO VOR/DME109.0001W

 
NDB name  Hdg/Dist  Freq  Var  ID
STURGIS116/18.738204WIRS .. .-. ...

Airport Services

Runway Information

Runway 9/27

Dimensions: 1705 x 130 ft. / 520 x 40 m
Surface: turf
RUNWAY 9  RUNWAY 27
Traffic pattern: leftright

Airport Ownership and Management from official FAA records

Ownership: Privately-owned
Owner: RANDY STREBIG
520 W. JEFFERSON BLVD
FT. WAYNE, IN 46802
Phone 260-466-3961
Manager: RANDY STREBIG
520 W. JEFFERSON BLVD
FT. WAYNE, IN 46802
Phone 260-466-3961

Airport Operational Statistics

Aircraft based on the field: 1
Single engine airplanes: 1
    

Additional Remarks

ALL TFC REMAIN N OF THE RY.
FOR CD CTC CHICAGO ARTCC AT 630-906-8921.

Instrument Procedures

There are no published instrument procedures at 52IN.

Some nearby airports with instrument procedures:

KANQ - Tri-State Steuben County Airport (4 nm SW)
KOEB - Branch County Memorial Airport (14 nm N)
C62 - Kendallville Municipal Airport (16 nm SW)
KIRS - Kirsch Municipal Airport (19 nm W)
KGWB - De Kalb County Airport (23 nm S)
 
Loc | Ops | Rwys | IFR | FBO | Links
Com | Nav | Svcs | Stats | Notes
Aerial photo
WARNING: Photo may not be current or correct
Aerial photo of 52IN (Strebig Airport)
Photo taken 26-Jul-2008

Do you have a better or more recent aerial photo of Strebig Airport that you would like to share? If so, please send us your photo.

 
Airport distance calculator
Flying to Strebig Airport? Find the distance to fly.

From to 52IN

Sunrise and sunset
Times for 18-Jan-2020
 Local
(UTC-5)
 Zulu
(UTC)
Morning civil twilight07:3412:34
Sunrise08:0413:04
Sunset17:3722:37
Evening civil twilight18:0723:07

Current date and time
Zulu (UTC)  19-Jan-2020 03:00:40
Local (UTC-5)  18-Jan-2020 22:00:40
 
METAR
KANQ 
4nm SW 
190255Z AUTO 26020G29KT 8SM -SN OVC016 M07/M10 A2983 RMK AO2
KOEB 
13nm N 
190255Z AUTO 27022G30KT 4SM -SN OVC016 M07/M08 A2981 RMK AO2 T10671081
KC62 
16nm SW 
190255Z AUTO 27018G29KT 5SM -SN OVC014 M07/M10 A2985 RMK AO2 T10721104
KIRS 
18nm W 
190255Z AUTO 27016G26KT 4SM -SN OVC017 M07/M10 A2985 RMK AO2 T10721102
TAF
KBTL 
38nm N 
190032Z 1901/1924 26014G24KT 1 1/2SM -SHSN BR OVC009 FM191000 25017KT 3SM -SHSN BLSN OVC012 FM191800 30012KT 4SM -SN OVC015 FM192100 33010KT P6SM OVC015
KAZO 
39nm NW 
182153Z 1822/1918 27018G32KT 6SM -SHSN OVC015 FM190300 26022G34KT 1 1/2SM -SHSN BLSN OVC010 FM191000 27016G27KT 3SM -SHSN BLSN OVC012 FM191400 28014G24KT 3SM -SHSN BLSN OVC015
KJXN 
43nm NE 
190120Z 1901/1924 26015G25KT 1 1/2SM -SHSN OVC014 FM191300 27013G23KT 3SM -SHSN OVC018 FM191800 30010G18KT P6SM VCSH OVC015 FM192200 32008KT P6SM BKN025
KFWA 
44nm S 
190122Z 1901/1924 26020G35KT P6SM OVC020 TEMPO 1902/1904 6SM -SHSN BKN012 FM191200 27015G25KT P6SM OVC025 FM191900 27012G22KT P6SM BKN030
NOTAMs
Click for the latest NOTAMs
NOTAMs are issued by the DoD/FAA and will open in a separate window not controlled by AirNav.

 

 
 

Would you like to see your business listed on this page?

 If your business provides an interesting product or service to pilots, flight crews, aircraft, or users of the Strebig Airport, you should consider listing it here.  To start the listing process, click on the button below
 
Add a business
 

Other Pages about Strebig Airport

Update a link
 
Copyright © AirNav, LLC. All rights reserved. Privacy Policy  Contact